createdAt,value
2023-02-27T00:02:14.752Z,99873.92
2023-02-27T00:04:43.689Z,99875.83
2023-02-27T00:07:12.390Z,99874.28
2023-02-27T00:09:49.687Z,99871.42
2023-02-27T00:12:19.821Z,99871.75
2023-02-27T00:14:48.695Z,99876.67
2023-02-27T00:17:20.033Z,99879.38
2023-02-27T00:19:54.550Z,99887.38
2023-02-27T00:22:23.845Z,99898.15
2023-02-27T00:24:58.976Z,99891.35
2023-02-27T00:27:28.525Z,99890.09
2023-02-27T00:29:59.022Z,99887.52
2023-02-27T00:32:31.181Z,99891.03
2023-02-27T00:35:00.336Z,99894.20
2023-02-27T00:37:28.769Z,99911.31
2023-02-27T00:39:57.804Z,99922.02
2023-02-27T00:42:28.620Z,99920.52
2023-02-27T00:44:57.317Z,99917.23
2023-02-27T00:47:25.856Z,99929.00
2023-02-27T00:49:59.158Z,99936.48
2023-02-27T00:52:28.363Z,99941.08
2023-02-27T00:54:58.235Z,99945.58
2023-02-27T00:57:26.646Z,99950.08
2023-02-27T01:00:00.048Z,99953.88
2023-02-27T01:02:28.562Z,99958.27
2023-02-27T01:04:58.214Z,99960.58
2023-02-27T01:07:26.670Z,99966.75
2023-02-27T01:09:55.202Z,99974.64
2023-02-27T01:12:23.884Z,99972.27
2023-02-27T01:14:53.292Z,99978.73
2023-02-27T01:17:26.688Z,99977.34
2023-02-27T01:19:57.421Z,99979.91
2023-02-27T01:22:26.513Z,99988.71
2023-02-27T01:24:56.112Z,99993.61
2023-02-27T01:27:25.158Z,99999.27
2023-02-27T01:29:54.640Z,100000.46
2023-02-27T01:32:25.474Z,99995.00
2023-02-27T01:34:55.768Z,99996.09
2023-02-27T01:37:28.661Z,99995.11
2023-02-27T01:39:59.351Z,99998.96
2023-02-27T01:42:28.391Z,100001.06
2023-02-27T01:45:12.018Z,99998.16
2023-02-27T01:48:04.609Z,99996.02
2023-02-27T01:50:38.168Z,99992.88
2023-02-27T01:53:06.873Z,99989.50
2023-02-27T01:55:38.125Z,99994.50
2023-02-27T01:58:10.776Z,99995.20
2023-02-27T02:00:42.434Z,99999.58
2023-02-27T02:03:14.449Z,99997.34
2023-02-27T02:05:43.185Z,99998.14
2023-02-27T02:08:21.495Z,99994.93
2023-02-27T02:10:53.083Z,99992.20
2023-02-27T02:13:22.685Z,99997.31
2023-02-27T02:16:00.245Z,99998.64
2023-02-27T02:18:36.631Z,100002.02
2023-02-27T02:21:23.953Z,100008.14
2023-02-27T02:24:10.839Z,100008.05
2023-02-27T02:26:47.889Z,100008.48
2023-02-27T02:29:40.595Z,100008.80
2023-02-27T02:32:24.935Z,100017.58
2023-02-27T02:35:18.110Z,100015.13
2023-02-27T02:38:17.054Z,100025.19
2023-02-27T02:40:56.150Z,100028.91
2023-02-27T02:44:01.801Z,100031.45
2023-02-27T02:46:37.687Z,100036.40
2023-02-27T02:49:27.263Z,100042.52
2023-02-27T02:52:06.721Z,100050.86
2023-02-27T02:54:45.959Z,100057.79
2023-02-27T02:57:21.165Z,100058.80
2023-02-27T02:59:50.876Z,100060.41
2023-02-27T03:03:53.897Z,100063.22
2023-02-27T03:06:33.958Z,100064.46
2023-02-27T03:09:08.612Z,100067.64
2023-02-27T03:11:41.594Z,100069.42
2023-02-27T03:14:20.407Z,100075.33
2023-02-27T03:16:53.572Z,100075.32
2023-02-27T03:19:26.680Z,100076.06
2023-02-27T03:22:20.878Z,100076.66
2023-02-27T03:24:52.428Z,100080.27
2023-02-27T03:27:25.477Z,100082.84
2023-02-27T03:30:01.697Z,100087.58
2023-02-27T03:32:46.068Z,100086.82
2023-02-27T03:35:15.556Z,100088.27
2023-02-27T03:37:59.070Z,100088.09
2023-02-27T03:40:31.963Z,100096.03
2023-02-27T03:43:06.557Z,100100.13
2023-02-27T03:45:58.946Z,100104.59
2023-02-27T03:48:27.481Z,100106.33
2023-02-27T03:50:57.667Z,100104.13
2023-02-27T03:53:31.173Z,100108.02
2023-02-27T03:56:00.163Z,100111.19
2023-02-27T03:58:30.455Z,100111.47
2023-02-27T04:01:19.548Z,100109.67
2023-02-27T04:03:56.187Z,100107.21
2023-02-27T04:07:06.470Z,100109.79
2023-02-27T04:10:14.407Z,100112.39
2023-02-27T04:13:18.044Z,100117.50
2023-02-27T04:16:17.235Z,100124.02
2023-02-27T04:18:52.520Z,100126.77
2023-02-27T04:21:52.200Z,100129.52
2023-02-27T04:24:39.060Z,100137.04
2023-02-27T04:27:25.724Z,100140.08
2023-02-27T04:30:05.266Z,100135.62
2023-02-27T04:33:06.042Z,100140.23
2023-02-27T04:35:40.022Z,100141.90
2023-02-27T04:38:12.215Z,100144.79
2023-02-27T04:40:48.288Z,100149.66
2023-02-27T04:43:20.048Z,100153.36
2023-02-27T04:45:49.278Z,100158.61
2023-02-27T04:48:27.675Z,100160.70
2023-02-27T04:51:04.090Z,100168.08
2023-02-27T04:53:59.638Z,100171.46
2023-02-27T04:56:36.995Z,100170.05
2023-02-27T04:59:15.773Z,100176.77
2023-02-27T05:01:48.771Z,100179.54
2023-02-27T05:04:19.781Z,100183.23
2023-02-27T05:06:51.079Z,100186.83
2023-02-27T05:09:39.490Z,100195.68
2023-02-27T05:12:18.103Z,100199.02
2023-02-27T05:14:53.226Z,100206.42
2023-02-27T05:17:27.375Z,100210.98
2023-02-27T05:19:57.975Z,100217.66
2023-02-27T05:22:41.050Z,100224.16
2023-02-27T05:25:17.475Z,100229.08
2023-02-27T05:27:54.184Z,100228.88
2023-02-27T05:30:27.435Z,100231.48
2023-02-27T05:33:10.450Z,100237.96
2023-02-27T05:35:51.360Z,100243.63
2023-02-27T05:38:22.349Z,100246.50
2023-02-27T05:41:20.422Z,100242.66
2023-02-27T05:43:52.717Z,100245.06
2023-02-27T05:46:27.572Z,100247.88
2023-02-27T05:49:03.555Z,100248.90
2023-02-27T05:51:35.092Z,100249.73
2023-02-27T05:54:12.838Z,100251.73
2023-02-27T05:56:53.114Z,100257.72
2023-02-27T05:59:46.663Z,100258.07
2023-02-27T06:02:16.629Z,100261.96
2023-02-27T06:04:47.255Z,100263.08
2023-02-27T06:07:25.313Z,100263.88
2023-02-27T06:10:02.633Z,100266.52
2023-02-27T06:12:32.882Z,100274.27
2023-02-27T06:15:04.613Z,100276.27
2023-02-27T06:17:39.850Z,100280.11
2023-02-27T06:20:14.193Z,100278.09
2023-02-27T06:22:49.476Z,100282.18
2023-02-27T06:25:24.722Z,100283.61
2023-02-27T06:28:03.269Z,100285.90
2023-02-27T06:30:42.281Z,100284.39
2023-02-27T06:33:18.707Z,100285.58
2023-02-27T06:36:04.157Z,100285.69
2023-02-27T06:38:38.289Z,100279.23
2023-02-27T06:41:07.627Z,100279.86
2023-02-27T06:43:38.056Z,100276.17
2023-02-27T06:46:13.030Z,100276.04
2023-02-27T06:48:42.497Z,100278.70
2023-02-27T06:51:16.213Z,100283.41
2023-02-27T06:53:48.471Z,100281.65
2023-02-27T06:56:25.042Z,100284.73
2023-02-27T06:58:55.422Z,100283.05
2023-02-27T07:01:28.902Z,100294.58
2023-02-27T07:04:03.737Z,100290.75
2023-02-27T07:07:32.264Z,100296.42
2023-02-27T07:09:43.521Z,100300.77
2023-02-27T07:12:26.590Z,100302.71
2023-02-27T07:15:20.314Z,100299.61
2023-02-27T07:18:00.845Z,100307.50
2023-02-27T07:20:30.526Z,100309.48
2023-02-27T07:23:08.882Z,100313.15
2023-02-27T07:25:40.966Z,100315.49
2023-02-27T07:28:13.510Z,100319.23
2023-02-27T07:30:50.063Z,100319.60
2023-02-27T07:33:22.847Z,100324.50
2023-02-27T07:35:52.998Z,100338.94
2023-02-27T07:38:30.045Z,100336.27
2023-02-27T07:41:00.157Z,100339.55
2023-02-27T07:43:31.972Z,100337.96
2023-02-27T07:46:04.885Z,100336.23
2023-02-27T07:48:44.195Z,100329.46
2023-02-27T07:51:17.084Z,100327.32
2023-02-27T07:53:56.280Z,100329.50
2023-02-27T07:56:28.971Z,100330.97
2023-02-27T07:58:58.443Z,100333.39
2023-02-27T08:01:27.863Z,100339.53
2023-02-27T08:07:54.573Z,100346.35
2023-02-27T08:10:27.973Z,100341.63
2023-02-27T08:12:58.430Z,100337.70
2023-02-27T08:15:28.101Z,100342.46
2023-02-27T08:18:01.051Z,100349.62
2023-02-27T08:20:30.538Z,100356.83
2023-02-27T08:23:01.512Z,100357.86
2023-02-27T08:25:33.485Z,100354.83
2023-02-27T08:28:04.121Z,100352.55
2023-02-27T08:30:32.856Z,100350.67
2023-02-27T08:33:03.311Z,100355.74
2023-02-27T08:35:35.046Z,100356.69
2023-02-27T08:38:04.399Z,100356.05
2023-02-27T08:40:40.849Z,100355.60
2023-02-27T08:43:12.209Z,100354.20
2023-02-27T08:45:44.079Z,100353.52
2023-02-27T08:48:19.258Z,100354.84
2023-02-27T08:50:53.665Z,100364.08
2023-02-27T08:53:24.748Z,100360.41
2023-02-27T08:56:08.828Z,100367.45
2023-02-27T08:58:59.691Z,100361.67
2023-02-27T09:01:34.685Z,100360.90
2023-02-27T09:04:07.435Z,100366.56
2023-02-27T09:06:53.538Z,100368.43
2023-02-27T09:09:30.350Z,100371.52
2023-02-27T09:11:59.271Z,100374.39
2023-02-27T09:14:29.414Z,100373.20
2023-02-27T09:16:59.016Z,100369.39
2023-02-27T09:19:30.344Z,100365.95
2023-02-27T09:22:02.504Z,100366.39
2023-02-27T09:24:34.751Z,100363.02
2023-02-27T09:27:03.083Z,100367.50
2023-02-27T09:29:35.860Z,100366.31
2023-02-27T09:32:16.211Z,100365.23
2023-02-27T09:34:46.665Z,100359.80
2023-02-27T09:37:16.128Z,100350.99
2023-02-27T09:39:46.318Z,100353.48
2023-02-27T09:42:28.340Z,100355.26
2023-02-27T09:45:07.852Z,100361.39
2023-02-27T09:47:40.408Z,100363.46
2023-02-27T09:50:21.683Z,100361.80
2023-02-27T09:52:51.868Z,100364.00
2023-02-27T09:55:41.145Z,100364.67
2023-02-27T09:58:31.363Z,100365.27
2023-02-27T10:01:08.471Z,100365.25
2023-02-27T10:03:46.249Z,100365.45
2023-02-27T10:06:27.770Z,100365.48
2023-02-27T10:09:00.449Z,100369.56
2023-02-27T10:11:56.881Z,100371.81
2023-02-27T10:14:59.078Z,100375.51
2023-02-27T10:17:42.687Z,100379.05
2023-02-27T10:20:20.790Z,100377.63
2023-02-27T10:22:49.432Z,100379.36
2023-02-27T10:25:30.707Z,100385.10
2023-02-27T10:28:20.816Z,100389.52
2023-02-27T10:30:58.918Z,100400.21
2023-02-27T10:34:06.881Z,100400.39
2023-02-27T10:36:41.258Z,100403.98
2023-02-27T10:39:14.911Z,100403.52
2023-02-27T10:41:45.027Z,100407.67
2023-02-27T10:44:18.811Z,100409.14
2023-02-27T10:46:49.942Z,100406.45
2023-02-27T10:49:22.205Z,100405.33
2023-02-27T10:52:11.058Z,100411.31
2023-02-27T10:54:45.514Z,100415.52
2023-02-27T10:57:36.012Z,100414.92
2023-02-27T11:00:07.402Z,100410.73
2023-02-27T11:02:37.717Z,100406.95
2023-02-27T11:05:29.105Z,100405.61
2023-02-27T11:08:19.999Z,100408.63
2023-02-27T11:11:08.359Z,100403.71
2023-02-27T11:22:07.045Z,100402.64
2023-02-27T11:24:36.887Z,100406.25
2023-02-27T11:27:22.555Z,100404.86
2023-02-27T11:29:59.809Z,100405.27
2023-02-27T11:32:43.585Z,100412.38
2023-02-27T11:35:43.316Z,100414.92
2023-02-27T11:38:39.408Z,100409.95
2023-02-27T11:41:18.343Z,100409.54
2023-02-27T11:43:52.738Z,100407.08
2023-02-27T11:46:48.364Z,100406.63
2023-02-27T11:49:36.572Z,100406.40
2023-02-27T11:52:38.250Z,100409.78
2023-02-27T11:55:19.415Z,100408.45
2023-02-27T11:58:13.452Z,100407.15
2023-02-27T12:16:42.876Z,100406.37
2023-02-27T12:19:29.718Z,100416.77
2023-02-27T12:22:04.370Z,100419.02
2023-02-27T12:24:47.050Z,100420.85
2023-02-27T12:27:15.752Z,100415.18
2023-02-27T12:29:49.893Z,100419.60
2023-02-27T12:32:28.113Z,100421.91
2023-02-27T12:35:12.669Z,100422.69
2023-02-27T12:37:41.162Z,100425.66
2023-02-27T12:41:00.131Z,100429.52
2023-02-27T12:43:48.568Z,100430.61
2023-02-27T12:46:41.278Z,100430.30
2023-02-27T12:49:50.724Z,100431.51
2023-02-27T12:53:27.178Z,100434.98
2023-02-27T13:00:30.558Z,100442.47
2023-02-27T13:07:38.841Z,100449.79
2023-02-27T13:10:43.843Z,100448.46
2023-02-27T13:13:23.722Z,100451.53
2023-02-27T13:16:23.748Z,100444.77
2023-02-27T13:19:13.933Z,100448.10
2023-02-27T13:21:54.105Z,100456.17
2023-02-27T13:24:24.133Z,100454.83
2023-02-27T13:27:15.460Z,100456.02
2023-02-27T13:30:35.138Z,100456.14
2023-02-27T13:34:03.438Z,100452.88
2023-02-27T13:40:18.721Z,100452.86
2023-02-27T13:42:46.505Z,100454.64
2023-02-27T13:49:29.559Z,100464.05
2023-02-27T13:52:01.911Z,100458.80
2023-02-27T13:54:35.806Z,100460.04
2023-02-27T13:57:20.122Z,100456.02
2023-02-27T14:00:03.601Z,100462.21
2023-02-27T14:02:56.766Z,100464.82
2023-02-27T14:19:17.491Z,100475.48
2023-02-27T14:22:24.616Z,100477.80
2023-02-27T14:25:47.167Z,100477.41
2023-02-27T14:28:29.898Z,100478.66
2023-02-27T14:31:08.677Z,100480.61
2023-02-27T14:33:45.887Z,100483.57
2023-02-27T14:36:25.692Z,100482.75
2023-02-27T14:38:58.354Z,100480.51
2023-02-27T14:41:39.117Z,100478.50
2023-02-27T14:44:20.820Z,100482.36
2023-02-27T14:50:01.414Z,100483.29
2023-02-27T14:52:31.426Z,100484.91
2023-02-27T14:55:27.362Z,100486.84
2023-02-27T14:57:54.995Z,100487.84
2023-02-27T15:00:57.093Z,100493.20
2023-02-27T15:04:06.982Z,100499.83
2023-02-27T15:07:26.535Z,100511.45
2023-02-27T15:10:09.243Z,100512.39
2023-02-27T15:12:42.526Z,100518.00
2023-02-27T15:15:23.290Z,100519.92
2023-02-27T15:17:54.511Z,100519.26
2023-02-27T15:20:38.372Z,100522.77
2023-02-27T15:23:32.047Z,100530.45
2023-02-27T15:25:59.464Z,100535.70
2023-02-27T15:28:32.863Z,100537.21
2023-02-27T15:31:01.513Z,100542.29
2023-02-27T15:33:37.340Z,100541.05
2023-02-27T15:36:05.489Z,100546.30
2023-02-27T15:38:34.603Z,100547.92
2023-02-27T15:41:03.554Z,100553.54
2023-02-27T15:43:33.369Z,100560.50
2023-02-27T15:46:01.024Z,100566.20
2023-02-27T15:48:32.277Z,100574.39
2023-02-27T15:51:06.398Z,100579.24
2023-02-27T15:53:36.082Z,100579.33
2023-02-27T15:56:06.348Z,100585.81
2023-02-27T15:58:49.356Z,100585.52
2023-02-27T16:01:24.302Z,100589.83
2023-02-27T16:04:44.997Z,100592.08
2023-02-27T16:07:25.130Z,100601.47
2023-02-27T16:10:05.468Z,100605.70
2023-02-27T16:12:45.070Z,100608.59
2023-02-27T16:15:33.632Z,100612.20
2023-02-27T16:18:10.640Z,100618.98
2023-02-27T16:20:47.149Z,100624.58
2023-02-27T16:23:33.835Z,100626.89
2023-02-27T16:26:34.689Z,100631.20
2023-02-27T16:29:45.142Z,100636.40
2023-02-27T16:32:45.659Z,100632.46
2023-02-27T16:35:38.909Z,100639.91
2023-02-27T16:38:23.010Z,100641.95
2023-02-27T16:41:23.160Z,100644.98
2023-02-27T16:43:53.356Z,100648.02
2023-02-27T16:46:50.793Z,100651.25
2023-02-27T16:49:43.155Z,100652.37
2023-02-27T16:52:11.045Z,100655.91
2023-02-27T16:55:33.499Z,100654.85
2023-02-27T17:01:24.027Z,100664.31
2023-02-27T17:04:19.630Z,100671.33
2023-02-27T17:07:06.766Z,100665.90
2023-02-27T17:10:09.754Z,100662.64
2023-02-27T17:12:47.438Z,100666.91
2023-02-27T17:15:22.354Z,100669.52
2023-02-27T17:18:16.717Z,100675.90
2023-02-27T17:20:46.512Z,100681.27
2023-02-27T17:23:20.062Z,100685.23
2023-02-27T17:25:55.214Z,100692.04
2023-02-27T17:28:28.553Z,100691.03
2023-02-27T17:31:01.252Z,100695.86
2023-02-27T17:33:56.978Z,100695.93
2023-02-27T17:36:27.641Z,100700.74
2023-02-27T17:39:00.559Z,100699.71
2023-02-27T17:45:33.633Z,100710.36
2023-02-27T17:48:09.588Z,100719.02
2023-02-27T17:50:38.771Z,100722.15
2023-02-27T17:53:12.731Z,100722.81
2023-02-27T17:55:52.308Z,100724.34
2023-02-27T17:58:23.427Z,100726.20
2023-02-27T18:01:24.061Z,100733.21
2023-02-27T18:04:36.137Z,100744.08
2023-02-27T18:07:20.737Z,100746.31
2023-02-27T18:10:25.815Z,100750.08
2023-02-27T18:12:56.628Z,100750.61
2023-02-27T18:15:26.414Z,100758.40
2023-02-27T18:17:58.784Z,100761.93
2023-02-27T18:20:28.837Z,100767.92
2023-02-27T18:23:06.879Z,100770.55
2023-02-27T18:25:52.521Z,100776.71
2023-02-27T18:28:23.450Z,100778.65
2023-02-27T18:30:55.820Z,100782.17
2023-02-27T18:33:23.450Z,100785.27
2023-02-27T18:35:57.216Z,100787.73
2023-02-27T18:38:24.929Z,100791.94
2023-02-27T18:46:43.141Z,100801.52
2023-02-27T18:49:11.724Z,100804.26
2023-02-27T18:51:42.429Z,100806.08
2023-02-27T18:54:13.239Z,100809.30
2023-02-27T18:56:41.505Z,100809.30
2023-02-27T18:59:09.307Z,100811.46
2023-02-27T19:01:40.458Z,100810.29
2023-02-27T19:04:09.924Z,100813.02
2023-02-27T19:06:44.100Z,100821.91
2023-02-27T19:09:33.276Z,100821.23
2023-02-27T19:12:01.562Z,100822.83
2023-02-27T19:14:32.685Z,100821.57
2023-02-27T19:17:28.176Z,100830.60
2023-02-27T19:20:02.887Z,100834.30
2023-02-27T19:22:31.790Z,100834.42
2023-02-27T19:25:02.517Z,100836.54
2023-02-27T19:27:38.623Z,100841.89
2023-02-27T19:30:09.738Z,100837.68
2023-02-27T19:32:49.204Z,100840.09
2023-02-27T19:35:21.564Z,100839.13
2023-02-27T19:38:04.081Z,100842.58
2023-02-27T19:40:38.463Z,100837.41
2023-02-27T19:43:12.045Z,100839.27
2023-02-27T19:45:41.200Z,100839.16
2023-02-27T19:48:33.685Z,100836.39
2023-02-27T19:51:02.851Z,100836.51
2023-02-27T19:53:34.974Z,100836.61
2023-02-27T19:56:05.816Z,100843.77
2023-02-27T19:58:33.636Z,100843.29
2023-02-27T20:01:03.111Z,100844.54
2023-02-27T20:03:31.122Z,100846.26
2023-02-27T20:05:59.650Z,100851.02
2023-02-27T20:08:35.225Z,100856.73
2023-02-27T20:11:06.945Z,100856.61
2023-02-27T20:13:35.962Z,100867.62
2023-02-27T20:16:11.322Z,100871.88
2023-02-27T20:18:42.704Z,100872.29
2023-02-27T20:21:16.612Z,100876.27
2023-02-27T20:23:55.580Z,100880.90
2023-02-27T20:26:50.662Z,100880.75
2023-02-27T20:29:23.277Z,100884.15
2023-02-27T20:31:53.371Z,100877.09
2023-02-27T20:34:26.861Z,100885.45
2023-02-27T20:37:21.452Z,100883.55
2023-02-27T20:39:53.407Z,100886.73
2023-02-27T20:42:25.461Z,100887.65
2023-02-27T20:44:58.363Z,100892.41
2023-02-27T20:47:35.171Z,100891.53
2023-02-27T20:50:04.260Z,100896.15
2023-02-27T20:52:37.209Z,100899.39
2023-02-27T20:55:11.561Z,100905.20
2023-02-27T20:57:49.358Z,100915.09
2023-02-27T21:00:19.873Z,100920.92
2023-02-27T21:02:51.763Z,100911.59
2023-02-27T21:05:23.353Z,100913.52
2023-02-27T21:07:54.719Z,100914.25
2023-02-27T21:10:25.131Z,100917.84
2023-02-27T21:12:54.380Z,100917.11
2023-02-27T21:15:33.899Z,100916.19
2023-02-27T21:18:06.816Z,100913.89
2023-02-27T21:20:44.480Z,100916.91
2023-02-27T21:23:11.874Z,100920.48
2023-02-27T21:25:50.341Z,100923.56
2023-02-27T21:28:20.803Z,100927.30
2023-02-27T21:30:53.858Z,100932.63
2023-02-27T21:33:22.839Z,100928.23
2023-02-27T21:35:51.763Z,100925.60
2023-02-27T21:38:20.517Z,100930.23
2023-02-27T21:40:55.198Z,100934.62
2023-02-27T21:43:26.317Z,100934.41
2023-02-27T21:45:55.695Z,100936.17
2023-02-27T21:48:35.585Z,100936.53
2023-02-27T21:51:10.374Z,100939.89
2023-02-27T21:53:44.040Z,100939.21
2023-02-27T21:56:13.387Z,100937.96
2023-02-27T21:58:40.775Z,100936.34
2023-02-27T22:01:24.013Z,100935.41
2023-02-27T22:03:53.877Z,100935.91
2023-02-27T22:06:24.248Z,100931.84
2023-02-27T22:08:59.266Z,100934.55
2023-02-27T22:11:30.515Z,100932.50
2023-02-27T22:13:58.682Z,100933.45
2023-02-27T22:16:27.747Z,100935.30
2023-02-27T22:18:54.953Z,100934.14
2023-02-27T22:21:24.919Z,100932.60
2023-02-27T22:23:54.594Z,100936.29
2023-02-27T22:26:24.477Z,100942.27
2023-02-27T22:28:59.882Z,100945.63
2023-02-27T22:31:31.981Z,100947.02
2023-02-27T22:34:11.602Z,100949.66
2023-02-27T22:36:41.275Z,100946.84
2023-02-27T22:39:08.317Z,100942.80
2023-02-27T22:41:39.100Z,100945.66
2023-02-27T22:44:06.978Z,100943.57
2023-02-27T22:46:39.568Z,100939.52
2023-02-27T22:49:19.677Z,100931.80
2023-02-27T22:51:50.793Z,100936.95
2023-02-27T22:54:22.534Z,100938.39
2023-02-27T22:56:56.997Z,100938.73
2023-02-27T22:59:30.587Z,100938.19
2023-02-27T23:01:59.491Z,100937.12
2023-02-27T23:04:30.910Z,100941.73
2023-02-27T23:06:59.179Z,100943.52
2023-02-27T23:09:26.783Z,100945.68
2023-02-27T23:11:54.973Z,100948.33
2023-02-27T23:14:26.518Z,100947.45
2023-02-27T23:16:58.459Z,100948.56
2023-02-27T23:19:25.790Z,100945.81
2023-02-27T23:21:54.514Z,100941.63
2023-02-27T23:24:30.091Z,100940.73
2023-02-27T23:26:57.696Z,100940.70
2023-02-27T23:29:35.387Z,100939.08
2023-02-27T23:32:04.188Z,100938.89
2023-02-27T23:34:47.501Z,100941.70
2023-02-27T23:37:20.289Z,100945.59
2023-02-27T23:39:48.090Z,100948.43
2023-02-27T23:42:35.547Z,100952.52
2023-02-27T23:45:32.222Z,100950.82
2023-02-27T23:48:00.626Z,100953.54
2023-02-27T23:50:32.880Z,100953.05
2023-02-27T23:53:06.642Z,100947.63
2023-02-27T23:55:38.238Z,100950.30
2023-02-27T23:58:08.660Z,100949.42
